sensor_id;sensor_type;location;lat;lon;timestamp;temperature;humidity
20041;DHT22;10181;48.072;9.884;2023-06-22T00:00:55;19.10;99.90
20041;DHT22;10181;48.072;9.884;2023-06-22T00:03:22;19.00;99.90
20041;DHT22;10181;48.072;9.884;2023-06-22T00:05:49;19.00;99.90
20041;DHT22;10181;48.072;9.884;2023-06-22T00:08:15;18.90;99.90
20041;DHT22;10181;48.072;9.884;2023-06-22T00:10:42;18.90;99.90
20041;DHT22;10181;48.072;9.884;2023-06-22T00:13:08;18.90;99.90
20041;DHT22;10181;48.072;9.884;2023-06-22T00:15:35;18.90;99.90
20041;DHT22;10181;48.072;9.884;2023-06-22T00:18:02;18.90;99.90
20041;DHT22;10181;48.072;9.884;2023-06-22T00:20:28;18.90;99.90
20041;DHT22;10181;48.072;9.884;2023-06-22T00:22:58;18.80;99.90
20041;DHT22;10181;48.072;9.884;2023-06-22T00:25:23;18.80;99.90
20041;DHT22;10181;48.072;9.884;2023-06-22T00:27:49;18.80;99.90
20041;DHT22;10181;48.072;9.884;2023-06-22T00:30:16;18.80;99.90
20041;DHT22;10181;48.072;9.884;2023-06-22T00:32:43;18.80;99.90
20041;DHT22;10181;48.072;9.884;2023-06-22T00:35:08;18.70;99.90
20041;DHT22;10181;48.072;9.884;2023-06-22T00:37:36;18.70;99.90
20041;DHT22;10181;48.072;9.884;2023-06-22T00:40:02;18.70;99.90
20041;DHT22;10181;48.072;9.884;2023-06-22T00:42:29;18.60;99.90
20041;DHT22;10181;48.072;9.884;2023-06-22T00:44:55;18.60;99.90
20041;DHT22;10181;48.072;9.884;2023-06-22T00:47:21;18.60;99.90
20041;DHT22;10181;48.072;9.884;2023-06-22T00:49:48;18.50;99.90
20041;DHT22;10181;48.072;9.884;2023-06-22T00:52:17;18.60;99.90
20041;DHT22;10181;48.072;9.884;2023-06-22T00:54:49;18.50;99.90
20041;DHT22;10181;48.072;9.884;2023-06-22T00:57:16;18.50;99.90
20041;DHT22;10181;48.072;9.884;2023-06-22T00:59:43;18.40;99.90
20041;DHT22;10181;48.072;9.884;2023-06-22T01:02:09;18.30;99.90
20041;DHT22;10181;48.072;9.884;2023-06-22T01:04:36;18.30;99.90
20041;DHT22;10181;48.072;9.884;2023-06-22T01:09:34;18.20;99.90
20041;DHT22;10181;48.072;9.884;2023-06-22T01:12:04;18.20;99.90
20041;DHT22;10181;48.072;9.884;2023-06-22T01:14:43;18.10;99.90
20041;DHT22;10181;48.072;9.884;2023-06-22T01:17:13;18.10;99.90
20041;DHT22;10181;48.072;9.884;2023-06-22T01:19:48;18.00;99.90
20041;DHT22;10181;48.072;9.884;2023-06-22T01:22:18;18.00;99.90
20041;DHT22;10181;48.072;9.884;2023-06-22T01:25:36;18.00;99.90
20041;DHT22;10181;48.072;9.884;2023-06-22T01:30:14;17.90;99.90
20041;DHT22;10181;48.072;9.884;2023-06-22T01:32:42;17.90;99.90
20041;DHT22;10181;48.072;9.884;2023-06-22T01:35:09;17.90;99.90
20041;DHT22;10181;48.072;9.884;2023-06-22T01:37:37;17.90;99.90
20041;DHT22;10181;48.072;9.884;2023-06-22T01:40:05;17.90;99.90
20041;DHT22;10181;48.072;9.884;2023-06-22T01:42:31;17.90;99.90
20041;DHT22;10181;48.072;9.884;2023-06-22T01:44:58;17.80;99.90
20041;DHT22;10181;48.072;9.884;2023-06-22T01:47:25;17.80;99.90
20041;DHT22;10181;48.072;9.884;2023-06-22T01:49:51;17.70;99.90
20041;DHT22;10181;48.072;9.884;2023-06-22T01:52:17;17.70;99.90
20041;DHT22;10181;48.072;9.884;2023-06-22T01:54:44;17.70;99.90
20041;DHT22;10181;48.072;9.884;2023-06-22T01:57:10;17.70;99.90
20041;DHT22;10181;48.072;9.884;2023-06-22T02:00:01;17.70;99.90
20041;DHT22;10181;48.072;9.884;2023-06-22T02:02:33;17.60;99.90
20041;DHT22;10181;48.072;9.884;2023-06-22T02:05:06;17.60;99.90
20041;DHT22;10181;48.072;9.884;2023-06-22T02:07:34;17.60;99.90
20041;DHT22;10181;48.072;9.884;2023-06-22T02:10:03;17.60;99.90
20041;DHT22;10181;48.072;9.884;2023-06-22T02:12:32;17.60;99.90
20041;DHT22;10181;48.072;9.884;2023-06-22T02:14:59;17.60;99.90
20041;DHT22;10181;48.072;9.884;2023-06-22T02:17:26;17.50;99.90
20041;DHT22;10181;48.072;9.884;2023-06-22T02:19:52;17.50;99.90
20041;DHT22;10181;48.072;9.884;2023-06-22T02:22:18;17.50;99.90
20041;DHT22;10181;48.072;9.884;2023-06-22T02:24:43;17.50;99.90
20041;DHT22;10181;48.072;9.884;2023-06-22T02:27:09;17.50;99.90
20041;DHT22;10181;48.072;9.884;2023-06-22T02:29:36;17.50;99.90
20041;DHT22;10181;48.072;9.884;2023-06-22T02:32:02;17.50;99.90
20041;DHT22;10181;48.072;9.884;2023-06-22T02:34:28;17.40;99.90
20041;DHT22;10181;48.072;9.884;2023-06-22T02:36:53;17.40;99.90
20041;DHT22;10181;48.072;9.884;2023-06-22T02:39:23;17.40;99.90
20041;DHT22;10181;48.072;9.884;2023-06-22T02:41:50;17.40;99.90
20041;DHT22;10181;48.072;9.884;2023-06-22T02:44:16;17.30;99.90
20041;DHT22;10181;48.072;9.884;2023-06-22T02:46:42;17.30;99.90
20041;DHT22;10181;48.072;9.884;2023-06-22T02:49:08;17.30;99.90
20041;DHT22;10181;48.072;9.884;2023-06-22T02:51:34;17.30;99.90
20041;DHT22;10181;48.072;9.884;2023-06-22T02:54:00;17.30;99.90
20041;DHT22;10181;48.072;9.884;2023-06-22T02:56:27;17.30;99.90
20041;DHT22;10181;48.072;9.884;2023-06-22T02:58:52;17.30;99.90
20041;DHT22;10181;48.072;9.884;2023-06-22T03:01:18;17.20;99.90
20041;DHT22;10181;48.072;9.884;2023-06-22T03:03:49;17.20;99.90
20041;DHT22;10181;48.072;9.884;2023-06-22T03:06:15;17.20;99.90
20041;DHT22;10181;48.072;9.884;2023-06-22T03:08:41;17.20;99.90
20041;DHT22;10181;48.072;9.884;2023-06-22T03:11:07;17.10;99.90
20041;DHT22;10181;48.072;9.884;2023-06-22T03:13:33;17.10;99.90
20041;DHT22;10181;48.072;9.884;2023-06-22T03:15:59;17.10;99.90
20041;DHT22;10181;48.072;9.884;2023-06-22T03:18:24;17.00;99.90
20041;DHT22;10181;48.072;9.884;2023-06-22T03:20:50;17.00;99.90
20041;DHT22;10181;48.072;9.884;2023-06-22T03:23:16;17.00;99.90
20041;DHT22;10181;48.072;9.884;2023-06-22T03:25:42;16.90;99.90
20041;DHT22;10181;48.072;9.884;2023-06-22T03:28:10;16.90;99.90
20041;DHT22;10181;48.072;9.884;2023-06-22T03:30:36;16.90;99.90
20041;DHT22;10181;48.072;9.884;2023-06-22T03:33:01;16.90;99.90
20041;DHT22;10181;48.072;9.884;2023-06-22T03:35:27;16.90;99.90
20041;DHT22;10181;48.072;9.884;2023-06-22T03:37:53;16.80;99.90
20041;DHT22;10181;48.072;9.884;2023-06-22T03:40:19;16.90;99.90
20041;DHT22;10181;48.072;9.884;2023-06-22T03:42:45;16.90;99.90
20041;DHT22;10181;48.072;9.884;2023-06-22T03:45:11;17.00;99.90
20041;DHT22;10181;48.072;9.884;2023-06-22T03:47:37;17.00;99.90
20041;DHT22;10181;48.072;9.884;2023-06-22T03:50:02;17.00;99.90
20041;DHT22;10181;48.072;9.884;2023-06-22T03:52:29;17.00;99.90
20041;DHT22;10181;48.072;9.884;2023-06-22T03:54:55;17.00;99.90
20041;DHT22;10181;48.072;9.884;2023-06-22T03:57:21;17.00;99.90
20041;DHT22;10181;48.072;9.884;2023-06-22T03:59:46;17.10;99.90
20041;DHT22;10181;48.072;9.884;2023-06-22T04:02:12;17.10;99.90
20041;DHT22;10181;48.072;9.884;2023-06-22T04:04:38;17.10;99.90
20041;DHT22;10181;48.072;9.884;2023-06-22T04:07:05;17.10;99.90
20041;DHT22;10181;48.072;9.884;2023-06-22T04:09:30;17.10;99.90
20041;DHT22;10181;48.072;9.884;2023-06-22T04:11:56;17.10;99.90
20041;DHT22;10181;48.072;9.884;2023-06-22T04:14:22;17.00;99.90
20041;DHT22;10181;48.072;9.884;2023-06-22T04:16:47;17.10;99.90
20041;DHT22;10181;48.072;9.884;2023-06-22T04:19:13;17.10;99.90
20041;DHT22;10181;48.072;9.884;2023-06-22T04:21:44;17.20;99.90
20041;DHT22;10181;48.072;9.884;2023-06-22T04:24:10;17.20;99.90
20041;DHT22;10181;48.072;9.884;2023-06-22T04:26:36;17.20;99.90
20041;DHT22;10181;48.072;9.884;2023-06-22T04:29:07;17.30;99.90
20041;DHT22;10181;48.072;9.884;2023-06-22T04:31:34;17.30;99.90
20041;DHT22;10181;48.072;9.884;2023-06-22T04:34:07;17.40;99.90
20041;DHT22;10181;48.072;9.884;2023-06-22T04:36:38;17.40;99.90
20041;DHT22;10181;48.072;9.884;2023-06-22T04:39:08;17.50;99.90
20041;DHT22;10181;48.072;9.884;2023-06-22T04:41:36;17.60;99.90
20041;DHT22;10181;48.072;9.884;2023-06-22T04:44:11;17.60;99.90
20041;DHT22;10181;48.072;9.884;2023-06-22T04:46:37;17.70;99.90
20041;DHT22;10181;48.072;9.884;2023-06-22T04:49:07;17.80;99.90
20041;DHT22;10181;48.072;9.884;2023-06-22T04:51:39;17.80;99.90
20041;DHT22;10181;48.072;9.884;2023-06-22T04:54:06;17.90;99.90
20041;DHT22;10181;48.072;9.884;2023-06-22T04:56:33;17.90;99.90
20041;DHT22;10181;48.072;9.884;2023-06-22T04:58:59;18.00;99.90
20041;DHT22;10181;48.072;9.884;2023-06-22T05:01:25;18.00;99.90
20041;DHT22;10181;48.072;9.884;2023-06-22T05:03:51;18.10;99.90
20041;DHT22;10181;48.072;9.884;2023-06-22T05:06:26;18.10;99.90
20041;DHT22;10181;48.072;9.884;2023-06-22T05:08:56;18.20;99.90
20041;DHT22;10181;48.072;9.884;2023-06-22T05:11:28;18.30;99.90
20041;DHT22;10181;48.072;9.884;2023-06-22T05:13:54;18.30;99.90
20041;DHT22;10181;48.072;9.884;2023-06-22T05:16:20;18.40;99.90
20041;DHT22;10181;48.072;9.884;2023-06-22T05:18:53;18.40;99.90
20041;DHT22;10181;48.072;9.884;2023-06-22T05:21:25;18.50;99.90
20041;DHT22;10181;48.072;9.884;2023-06-22T05:23:52;18.50;99.90
20041;DHT22;10181;48.072;9.884;2023-06-22T05:26:19;18.60;99.90
20041;DHT22;10181;48.072;9.884;2023-06-22T05:28:46;18.60;99.90
20041;DHT22;10181;48.072;9.884;2023-06-22T05:31:15;18.70;99.90
20041;DHT22;10181;48.072;9.884;2023-06-22T05:33:42;18.80;99.90
20041;DHT22;10181;48.072;9.884;2023-06-22T05:36:08;18.80;99.90
20041;DHT22;10181;48.072;9.884;2023-06-22T05:38:34;18.90;99.90
20041;DHT22;10181;48.072;9.884;2023-06-22T05:41:00;19.00;99.90
20041;DHT22;10181;48.072;9.884;2023-06-22T05:43:26;19.00;99.90
20041;DHT22;10181;48.072;9.884;2023-06-22T05:45:51;19.00;99.90
20041;DHT22;10181;48.072;9.884;2023-06-22T05:48:17;19.10;99.90
20041;DHT22;10181;48.072;9.884;2023-06-22T05:50:43;19.20;99.90
20041;DHT22;10181;48.072;9.884;2023-06-22T05:53:08;19.20;99.90
20041;DHT22;10181;48.072;9.884;2023-06-22T05:55:34;19.30;99.90
20041;DHT22;10181;48.072;9.884;2023-06-22T05:58:00;19.30;99.90
20041;DHT22;10181;48.072;9.884;2023-06-22T06:00:25;19.40;99.90
20041;DHT22;10181;48.072;9.884;2023-06-22T06:02:51;19.50;99.90
20041;DHT22;10181;48.072;9.884;2023-06-22T06:05:17;19.60;99.90
20041;DHT22;10181;48.072;9.884;2023-06-22T06:07:45;19.70;99.90
20041;DHT22;10181;48.072;9.884;2023-06-22T06:10:11;19.70;99.90
20041;DHT22;10181;48.072;9.884;2023-06-22T06:12:37;19.80;99.90
20041;DHT22;10181;48.072;9.884;2023-06-22T06:15:04;19.90;99.90
20041;DHT22;10181;48.072;9.884;2023-06-22T06:17:30;19.90;99.90
20041;DHT22;10181;48.072;9.884;2023-06-22T06:19:56;20.00;99.90
20041;DHT22;10181;48.072;9.884;2023-06-22T06:22:21;20.10;99.90
20041;DHT22;10181;48.072;9.884;2023-06-22T06:24:49;20.10;99.90
20041;DHT22;10181;48.072;9.884;2023-06-22T06:27:15;20.20;99.90
20041;DHT22;10181;48.072;9.884;2023-06-22T06:29:40;20.30;99.90
20041;DHT22;10181;48.072;9.884;2023-06-22T06:32:06;20.40;99.90
20041;DHT22;10181;48.072;9.884;2023-06-22T06:34:32;20.50;99.90
20041;DHT22;10181;48.072;9.884;2023-06-22T06:36:58;20.60;99.90
20041;DHT22;10181;48.072;9.884;2023-06-22T06:39:23;20.60;99.90
20041;DHT22;10181;48.072;9.884;2023-06-22T06:41:50;20.70;99.90
20041;DHT22;10181;48.072;9.884;2023-06-22T06:44:15;20.80;99.90
20041;DHT22;10181;48.072;9.884;2023-06-22T06:46:42;20.80;99.90
20041;DHT22;10181;48.072;9.884;2023-06-22T06:49:08;20.90;99.90
20041;DHT22;10181;48.072;9.884;2023-06-22T06:51:33;21.00;99.90
20041;DHT22;10181;48.072;9.884;2023-06-22T06:54:00;21.10;99.90
20041;DHT22;10181;48.072;9.884;2023-06-22T06:56:25;21.20;99.90
20041;DHT22;10181;48.072;9.884;2023-06-22T06:58:51;21.20;99.90
20041;DHT22;10181;48.072;9.884;2023-06-22T07:01:17;21.40;99.90
20041;DHT22;10181;48.072;9.884;2023-06-22T07:03:43;21.40;99.90
20041;DHT22;10181;48.072;9.884;2023-06-22T07:06:09;21.50;99.90
20041;DHT22;10181;48.072;9.884;2023-06-22T07:08:34;21.60;99.90
20041;DHT22;10181;48.072;9.884;2023-06-22T07:11:05;21.60;99.90
20041;DHT22;10181;48.072;9.884;2023-06-22T07:13:31;21.70;99.90
20041;DHT22;10181;48.072;9.884;2023-06-22T07:15:56;21.70;99.90
20041;DHT22;10181;48.072;9.884;2023-06-22T07:18:23;21.80;99.90
20041;DHT22;10181;48.072;9.884;2023-06-22T07:20:48;21.90;99.90
20041;DHT22;10181;48.072;9.884;2023-06-22T07:23:14;22.00;99.90
20041;DHT22;10181;48.072;9.884;2023-06-22T07:25:40;22.00;99.90
20041;DHT22;10181;48.072;9.884;2023-06-22T07:28:07;22.10;99.90
20041;DHT22;10181;48.072;9.884;2023-06-22T07:30:33;22.10;99.90
20041;DHT22;10181;48.072;9.884;2023-06-22T07:33:00;22.10;99.90
20041;DHT22;10181;48.072;9.884;2023-06-22T07:35:32;22.20;99.90
20041;DHT22;10181;48.072;9.884;2023-06-22T07:37:58;22.20;99.90
20041;DHT22;10181;48.072;9.884;2023-06-22T07:40:24;22.30;99.90
20041;DHT22;10181;48.072;9.884;2023-06-22T07:42:50;22.40;99.90
20041;DHT22;10181;48.072;9.884;2023-06-22T07:45:17;22.50;99.90
20041;DHT22;10181;48.072;9.884;2023-06-22T07:47:43;22.60;99.90
20041;DHT22;10181;48.072;9.884;2023-06-22T07:50:09;22.70;99.90
20041;DHT22;10181;48.072;9.884;2023-06-22T07:52:35;22.80;99.90
20041;DHT22;10181;48.072;9.884;2023-06-22T07:55:01;22.80;99.90
20041;DHT22;10181;48.072;9.884;2023-06-22T07:57:28;22.90;99.90
20041;DHT22;10181;48.072;9.884;2023-06-22T08:00:00;22.90;99.90
20041;DHT22;10181;48.072;9.884;2023-06-22T08:02:26;23.00;99.90
20041;DHT22;10181;48.072;9.884;2023-06-22T08:04:52;23.00;99.90
20041;DHT22;10181;48.072;9.884;2023-06-22T08:07:17;23.10;99.90
20041;DHT22;10181;48.072;9.884;2023-06-22T08:09:48;23.10;99.90
20041;DHT22;10181;48.072;9.884;2023-06-22T08:12:14;23.20;99.90
20041;DHT22;10181;48.072;9.884;2023-06-22T08:14:42;23.20;99.90
20041;DHT22;10181;48.072;9.884;2023-06-22T08:17:08;23.30;99.90
20041;DHT22;10181;48.072;9.884;2023-06-22T08:19:33;23.40;99.90
20041;DHT22;10181;48.072;9.884;2023-06-22T08:21:59;23.40;99.90
20041;DHT22;10181;48.072;9.884;2023-06-22T08:24:25;23.60;99.90
20041;DHT22;10181;48.072;9.884;2023-06-22T08:26:52;23.60;99.90
20041;DHT22;10181;48.072;9.884;2023-06-22T08:29:17;23.70;99.90
20041;DHT22;10181;48.072;9.884;2023-06-22T08:31:43;23.80;99.90
20041;DHT22;10181;48.072;9.884;2023-06-22T08:34:09;23.90;99.90
20041;DHT22;10181;48.072;9.884;2023-06-22T08:36:34;24.00;99.90
20041;DHT22;10181;48.072;9.884;2023-06-22T08:39:03;24.10;99.90
20041;DHT22;10181;48.072;9.884;2023-06-22T08:41:29;24.20;99.90
20041;DHT22;10181;48.072;9.884;2023-06-22T08:43:55;24.30;99.90
20041;DHT22;10181;48.072;9.884;2023-06-22T08:46:21;24.30;99.90
20041;DHT22;10181;48.072;9.884;2023-06-22T08:48:49;24.50;99.90
20041;DHT22;10181;48.072;9.884;2023-06-22T08:51:16;24.50;99.90
20041;DHT22;10181;48.072;9.884;2023-06-22T08:53:42;24.70;99.90
20041;DHT22;10181;48.072;9.884;2023-06-22T08:56:08;24.80;99.90
20041;DHT22;10181;48.072;9.884;2023-06-22T08:58:34;24.90;99.90
20041;DHT22;10181;48.072;9.884;2023-06-22T09:00:59;25.10;99.90
20041;DHT22;10181;48.072;9.884;2023-06-22T09:03:26;25.20;99.90
20041;DHT22;10181;48.072;9.884;2023-06-22T09:05:52;25.20;99.90
20041;DHT22;10181;48.072;9.884;2023-06-22T09:08:18;25.30;99.90
20041;DHT22;10181;48.072;9.884;2023-06-22T09:10:43;25.30;99.90
20041;DHT22;10181;48.072;9.884;2023-06-22T09:13:09;25.20;99.90
20041;DHT22;10181;48.072;9.884;2023-06-22T09:15:35;25.20;99.90
20041;DHT22;10181;48.072;9.884;2023-06-22T09:18:01;25.00;99.90
20041;DHT22;10181;48.072;9.884;2023-06-22T09:20:26;25.00;99.90
20041;DHT22;10181;48.072;9.884;2023-06-22T09:22:52;25.00;99.90
20041;DHT22;10181;48.072;9.884;2023-06-22T09:25:17;25.10;99.90
20041;DHT22;10181;48.072;9.884;2023-06-22T09:27:46;25.30;99.90
20041;DHT22;10181;48.072;9.884;2023-06-22T09:30:12;25.40;99.90
20041;DHT22;10181;48.072;9.884;2023-06-22T09:32:38;25.60;99.90
20041;DHT22;10181;48.072;9.884;2023-06-22T09:35:05;25.70;99.90
20041;DHT22;10181;48.072;9.884;2023-06-22T09:37:31;25.70;99.90
20041;DHT22;10181;48.072;9.884;2023-06-22T09:39:57;25.70;99.90
20041;DHT22;10181;48.072;9.884;2023-06-22T09:42:22;25.90;99.90
20041;DHT22;10181;48.072;9.884;2023-06-22T09:44:48;26.00;99.90
20041;DHT22;10181;48.072;9.884;2023-06-22T09:47:14;26.00;99.90
20041;DHT22;10181;48.072;9.884;2023-06-22T09:49:39;26.00;99.90
20041;DHT22;10181;48.072;9.884;2023-06-22T09:52:05;25.90;99.90
20041;DHT22;10181;48.072;9.884;2023-06-22T09:54:31;25.90;99.90
20041;DHT22;10181;48.072;9.884;2023-06-22T09:56:57;25.90;99.90
20041;DHT22;10181;48.072;9.884;2023-06-22T09:59:22;25.90;99.90
20041;DHT22;10181;48.072;9.884;2023-06-22T10:01:48;25.90;99.90
20041;DHT22;10181;48.072;9.884;2023-06-22T10:04:14;26.00;99.90
20041;DHT22;10181;48.072;9.884;2023-06-22T10:06:40;26.20;99.90
20041;DHT22;10181;48.072;9.884;2023-06-22T10:09:07;26.40;99.90
20041;DHT22;10181;48.072;9.884;2023-06-22T10:11:33;26.50;99.90
20041;DHT22;10181;48.072;9.884;2023-06-22T10:14:00;26.60;99.90
20041;DHT22;10181;48.072;9.884;2023-06-22T10:16:36;26.50;99.90
20041;DHT22;10181;48.072;9.884;2023-06-22T10:19:02;26.50;99.90
20041;DHT22;10181;48.072;9.884;2023-06-22T10:21:28;26.50;99.90
20041;DHT22;10181;48.072;9.884;2023-06-22T10:23:54;26.60;99.90
20041;DHT22;10181;48.072;9.884;2023-06-22T10:26:21;26.70;99.90
20041;DHT22;10181;48.072;9.884;2023-06-22T10:28:46;26.80;99.90
20041;DHT22;10181;48.072;9.884;2023-06-22T10:31:12;26.90;99.90
20041;DHT22;10181;48.072;9.884;2023-06-22T10:33:37;26.90;99.90
20041;DHT22;10181;48.072;9.884;2023-06-22T10:36:03;27.10;99.90
20041;DHT22;10181;48.072;9.884;2023-06-22T10:38:30;27.20;99.90
20041;DHT22;10181;48.072;9.884;2023-06-22T10:40:55;27.10;99.90
20041;DHT22;10181;48.072;9.884;2023-06-22T10:43:21;27.20;99.90
20041;DHT22;10181;48.072;9.884;2023-06-22T10:45:47;27.20;99.90
20041;DHT22;10181;48.072;9.884;2023-06-22T10:48:12;27.10;99.90
20041;DHT22;10181;48.072;9.884;2023-06-22T10:50:38;27.10;99.90
20041;DHT22;10181;48.072;9.884;2023-06-22T10:53:04;27.10;99.90
20041;DHT22;10181;48.072;9.884;2023-06-22T10:55:29;27.10;99.90
20041;DHT22;10181;48.072;9.884;2023-06-22T10:57:55;27.20;99.90
20041;DHT22;10181;48.072;9.884;2023-06-22T11:00:21;27.30;99.90
20041;DHT22;10181;48.072;9.884;2023-06-22T11:02:47;27.30;99.90
20041;DHT22;10181;48.072;9.884;2023-06-22T11:05:12;27.40;99.90
20041;DHT22;10181;48.072;9.884;2023-06-22T11:07:42;27.40;99.90
20041;DHT22;10181;48.072;9.884;2023-06-22T11:10:09;27.50;99.90
20041;DHT22;10181;48.072;9.884;2023-06-22T11:12:34;27.70;99.90
20041;DHT22;10181;48.072;9.884;2023-06-22T11:15:01;27.60;99.90
20041;DHT22;10181;48.072;9.884;2023-06-22T11:17:27;27.50;99.90
20041;DHT22;10181;48.072;9.884;2023-06-22T11:19:52;27.60;99.90
20041;DHT22;10181;48.072;9.884;2023-06-22T11:22:18;27.70;99.90
20041;DHT22;10181;48.072;9.884;2023-06-22T11:24:44;27.80;99.90
20041;DHT22;10181;48.072;9.884;2023-06-22T11:27:09;27.80;99.90
20041;DHT22;10181;48.072;9.884;2023-06-22T11:29:35;27.90;99.90
20041;DHT22;10181;48.072;9.884;2023-06-22T11:32:01;28.00;99.90
20041;DHT22;10181;48.072;9.884;2023-06-22T11:34:27;28.20;99.90
20041;DHT22;10181;48.072;9.884;2023-06-22T11:36:53;28.40;99.90
20041;DHT22;10181;48.072;9.884;2023-06-22T11:39:19;28.50;99.90
20041;DHT22;10181;48.072;9.884;2023-06-22T11:41:45;28.40;99.90
20041;DHT22;10181;48.072;9.884;2023-06-22T11:44:11;28.40;99.90
20041;DHT22;10181;48.072;9.884;2023-06-22T11:46:36;28.60;99.90
20041;DHT22;10181;48.072;9.884;2023-06-22T11:49:02;28.60;99.90
20041;DHT22;10181;48.072;9.884;2023-06-22T11:51:28;28.70;99.90
20041;DHT22;10181;48.072;9.884;2023-06-22T11:53:57;28.70;99.90
20041;DHT22;10181;48.072;9.884;2023-06-22T11:56:23;28.70;99.90
20041;DHT22;10181;48.072;9.884;2023-06-22T11:58:48;28.70;99.90
20041;DHT22;10181;48.072;9.884;2023-06-22T12:01:14;28.80;99.90
20041;DHT22;10181;48.072;9.884;2023-06-22T12:03:41;28.80;99.90
20041;DHT22;10181;48.072;9.884;2023-06-22T12:06:09;29.10;99.90
20041;DHT22;10181;48.072;9.884;2023-06-22T12:08:34;29.20;99.90
20041;DHT22;10181;48.072;9.884;2023-06-22T12:11:00;29.10;99.90
20041;DHT22;10181;48.072;9.884;2023-06-22T12:13:26;28.90;99.90
20041;DHT22;10181;48.072;9.884;2023-06-22T12:15:52;28.80;99.90
20041;DHT22;10181;48.072;9.884;2023-06-22T12:18:18;28.70;99.90
20041;DHT22;10181;48.072;9.884;2023-06-22T12:20:46;28.60;99.90
20041;DHT22;10181;48.072;9.884;2023-06-22T12:23:12;28.50;99.90
20041;DHT22;10181;48.072;9.884;2023-06-22T12:25:37;28.50;99.90
20041;DHT22;10181;48.072;9.884;2023-06-22T12:28:03;28.40;99.90
20041;DHT22;10181;48.072;9.884;2023-06-22T12:30:30;28.40;99.90
20041;DHT22;10181;48.072;9.884;2023-06-22T12:32:56;28.50;99.90
20041;DHT22;10181;48.072;9.884;2023-06-22T12:35:21;28.60;99.90
20041;DHT22;10181;48.072;9.884;2023-06-22T12:37:47;28.60;99.90
20041;DHT22;10181;48.072;9.884;2023-06-22T12:40:13;28.70;99.90
20041;DHT22;10181;48.072;9.884;2023-06-22T12:42:39;28.70;99.90
20041;DHT22;10181;48.072;9.884;2023-06-22T12:45:05;28.70;99.90
20041;DHT22;10181;48.072;9.884;2023-06-22T12:47:31;28.70;99.90
20041;DHT22;10181;48.072;9.884;2023-06-22T12:49:57;28.60;99.90
20041;DHT22;10181;48.072;9.884;2023-06-22T12:52:22;28.60;99.90
20041;DHT22;10181;48.072;9.884;2023-06-22T12:54:48;28.60;99.90
20041;DHT22;10181;48.072;9.884;2023-06-22T12:57:14;28.50;99.90
20041;DHT22;10181;48.072;9.884;2023-06-22T12:59:40;28.50;99.90
20041;DHT22;10181;48.072;9.884;2023-06-22T13:02:05;28.40;99.90
20041;DHT22;10181;48.072;9.884;2023-06-22T13:04:31;28.40;99.90
20041;DHT22;10181;48.072;9.884;2023-06-22T13:06:57;28.30;99.90
20041;DHT22;10181;48.072;9.884;2023-06-22T13:09:22;28.30;99.90
20041;DHT22;10181;48.072;9.884;2023-06-22T13:11:48;28.30;99.90
20041;DHT22;10181;48.072;9.884;2023-06-22T13:14:14;28.30;99.90
20041;DHT22;10181;48.072;9.884;2023-06-22T13:16:41;28.30;99.90
20041;DHT22;10181;48.072;9.884;2023-06-22T13:19:07;28.20;99.90
20041;DHT22;10181;48.072;9.884;2023-06-22T13:21:32;28.20;99.90
20041;DHT22;10181;48.072;9.884;2023-06-22T13:23:59;28.20;99.90
20041;DHT22;10181;48.072;9.884;2023-06-22T13:26:25;28.10;99.90
20041;DHT22;10181;48.072;9.884;2023-06-22T13:28:50;28.10;99.90
20041;DHT22;10181;48.072;9.884;2023-06-22T13:31:16;28.10;99.90
20041;DHT22;10181;48.072;9.884;2023-06-22T13:33:42;28.10;99.90
20041;DHT22;10181;48.072;9.884;2023-06-22T13:36:09;28.10;99.90
20041;DHT22;10181;48.072;9.884;2023-06-22T13:38:35;28.10;99.90
20041;DHT22;10181;48.072;9.884;2023-06-22T13:41:04;28.10;99.90
20041;DHT22;10181;48.072;9.884;2023-06-22T13:43:30;28.10;99.90
20041;DHT22;10181;48.072;9.884;2023-06-22T13:45:56;28.00;99.90
20041;DHT22;10181;48.072;9.884;2023-06-22T13:48:21;28.00;99.90
20041;DHT22;10181;48.072;9.884;2023-06-22T13:50:48;28.10;99.90
20041;DHT22;10181;48.072;9.884;2023-06-22T13:53:14;28.10;99.90
20041;DHT22;10181;48.072;9.884;2023-06-22T13:55:40;28.10;99.90
20041;DHT22;10181;48.072;9.884;2023-06-22T13:58:06;28.00;99.90
20041;DHT22;10181;48.072;9.884;2023-06-22T14:00:32;28.10;99.90
20041;DHT22;10181;48.072;9.884;2023-06-22T14:02:58;28.10;99.90
20041;DHT22;10181;48.072;9.884;2023-06-22T14:05:23;28.20;99.90
20041;DHT22;10181;48.072;9.884;2023-06-22T14:07:49;28.20;99.90
20041;DHT22;10181;48.072;9.884;2023-06-22T14:10:15;28.20;99.90
20041;DHT22;10181;48.072;9.884;2023-06-22T14:12:40;28.30;99.90
20041;DHT22;10181;48.072;9.884;2023-06-22T14:15:06;28.40;99.90
20041;DHT22;10181;48.072;9.884;2023-06-22T14:17:32;28.50;99.90
20041;DHT22;10181;48.072;9.884;2023-06-22T14:19:58;28.60;99.90
20041;DHT22;10181;48.072;9.884;2023-06-22T14:22:23;28.60;99.90
20041;DHT22;10181;48.072;9.884;2023-06-22T14:24:49;28.60;99.90
20041;DHT22;10181;48.072;9.884;2023-06-22T14:27:15;28.70;99.90
20041;DHT22;10181;48.072;9.884;2023-06-22T14:29:42;28.70;99.90
20041;DHT22;10181;48.072;9.884;2023-06-22T14:32:08;28.80;99.90
20041;DHT22;10181;48.072;9.884;2023-06-22T14:34:34;29.00;99.90
20041;DHT22;10181;48.072;9.884;2023-06-22T14:37:06;29.10;99.90
20041;DHT22;10181;48.072;9.884;2023-06-22T14:39:32;29.20;99.90
20041;DHT22;10181;48.072;9.884;2023-06-22T14:41:58;29.20;99.90
20041;DHT22;10181;48.072;9.884;2023-06-22T14:44:26;29.10;99.90
20041;DHT22;10181;48.072;9.884;2023-06-22T14:46:54;29.20;99.90
20041;DHT22;10181;48.072;9.884;2023-06-22T14:49:20;29.30;99.90
20041;DHT22;10181;48.072;9.884;2023-06-22T14:51:45;29.30;99.90
20041;DHT22;10181;48.072;9.884;2023-06-22T14:54:11;29.20;99.90
20041;DHT22;10181;48.072;9.884;2023-06-22T14:56:37;29.20;99.90
20041;DHT22;10181;48.072;9.884;2023-06-22T14:59:02;29.10;99.90
20041;DHT22;10181;48.072;9.884;2023-06-22T15:01:29;28.90;99.90
20041;DHT22;10181;48.072;9.884;2023-06-22T15:03:55;28.80;99.90
20041;DHT22;10181;48.072;9.884;2023-06-22T15:06:21;28.70;99.90
20041;DHT22;10181;48.072;9.884;2023-06-22T15:08:47;28.60;99.90
20041;DHT22;10181;48.072;9.884;2023-06-22T15:11:13;28.70;99.90
20041;DHT22;10181;48.072;9.884;2023-06-22T15:13:39;28.60;99.90
20041;DHT22;10181;48.072;9.884;2023-06-22T15:16:06;28.60;99.90
20041;DHT22;10181;48.072;9.884;2023-06-22T15:18:31;28.60;99.90
20041;DHT22;10181;48.072;9.884;2023-06-22T15:21:01;28.60;99.90
20041;DHT22;10181;48.072;9.884;2023-06-22T15:23:28;28.50;99.90
20041;DHT22;10181;48.072;9.884;2023-06-22T15:25:55;28.50;99.90
20041;DHT22;10181;48.072;9.884;2023-06-22T15:28:20;28.40;99.90
20041;DHT22;10181;48.072;9.884;2023-06-22T15:30:47;28.30;99.90